Time;durP1;ratioP1;P1;durP2;ratioP2;P2;SDS_P1;SDS_P2;PMS_P1;PMS_P2;Temp;Humidity;BMP_temperature;BMP_pressure;BME280_temperature;BME280_humidity;BME280_pressure;Samples;Min_cycle;Max_cycle;Signal;HPM_P1;HPM_P2
2022/05/16 00:02:03;;;;;;;0.40;0.40;;;11.30;99.90;;;;;;5031002;28;20514;-77
2022/05/16 00:04:30;;;;;;;0.30;0.30;;;11.40;99.90;;;;;;5029122;28;20044;-76
2022/05/16 00:06:55;;;;;;;;;;;11.50;99.90;;;;;;5049474;28;20612;-76
2022/05/16 00:09:21;;;;;;;0.38;0.38;;;11.60;99.90;;;;;;5041294;28;20007;-77
2022/05/16 00:11:47;;;;;;;0.30;0.30;;;11.60;99.90;;;;;;5051467;28;20045;-77
2022/05/16 00:14:13;;;;;;;0.43;0.43;;;11.70;99.90;;;;;;5040326;28;20049;-78
2022/05/16 00:16:38;;;;;;;0.32;0.32;;;11.80;99.90;;;;;;5029999;28;20045;-78
2022/05/16 00:19:05;;;;;;;0.30;0.30;;;11.80;99.90;;;;;;5013556;28;20652;-77
2022/05/16 00:21:31;;;;;;;0.40;0.40;;;11.90;99.90;;;;;;5023019;28;20040;-77
2022/05/16 00:23:57;;;;;;;0.50;0.50;;;11.90;99.90;;;;;;5041133;28;20430;-76
2022/05/16 00:26:26;;;;;;;0.30;0.30;;;11.90;99.90;;;;;;5036313;28;20045;-77
2022/05/16 00:28:53;;;;;;;2.67;2.47;;;11.90;99.90;;;;;;5027826;28;20037;-76
2022/05/16 00:31:19;;;;;;;0.40;0.40;;;11.90;99.90;;;;;;5020021;28;20128;-77
2022/05/16 00:33:45;;;;;;;0.40;0.40;;;12.00;99.90;;;;;;5026542;28;20128;-77
2022/05/16 00:36:11;;;;;;;;;;;11.90;99.90;;;;;;5040060;28;20046;-79
2022/05/16 00:38:36;;;;;;;0.40;0.40;;;11.90;99.90;;;;;;5035098;28;19948;-75
2022/05/16 00:41:04;;;;;;;0.40;0.40;;;11.90;99.90;;;;;;5055278;28;20044;-76
2022/05/16 00:43:55;;;;;;;0.30;0.30;;;11.90;99.90;;;;;;5048934;28;20132;-78
2022/05/16 00:46:23;;;;;;;0.47;0.47;;;11.90;99.90;;;;;;5032766;28;20041;-78
2022/05/16 00:48:49;;;;;;;0.30;0.30;;;11.90;99.90;;;;;;5020048;28;20053;-77
2022/05/16 00:51:26;;;;;;;0.52;0.52;;;11.90;99.90;;;;;;5016790;28;20120;-77
2022/05/16 00:53:56;;;;;;;0.50;0.50;;;11.90;99.90;;;;;;5055419;28;20040;-77
2022/05/16 00:56:24;;;;;;;0.45;0.45;;;11.90;99.90;;;;;;5053341;28;20113;-77
2022/05/16 00:58:50;;;;;;;0.20;0.20;;;11.80;99.90;;;;;;5016178;28;20053;-77
2022/05/16 01:06:47;;;;;;;0.25;0.25;;;11.80;99.90;;;;;;5049474;28;20399;-76
2022/05/16 01:09:13;;;;;;;;;;;11.80;99.90;;;;;;5024726;28;20037;-77
2022/05/16 01:11:39;;;;;;;0.40;0.40;;;11.80;99.90;;;;;;5024659;28;20329;-76
2022/05/16 01:14:05;;;;;;;;;;;11.80;99.90;;;;;;5022083;28;20049;-76
2022/05/16 01:16:31;;;;;;;0.40;0.40;;;11.70;99.90;;;;;;5046746;28;19970;-77
2022/05/16 01:18:57;;;;;;;0.95;0.95;;;11.70;99.90;;;;;;5033045;28;20037;-76
2022/05/16 01:21:30;;;;;;;0.40;0.40;;;11.70;99.90;;;;;;5022354;28;20438;-77
2022/05/16 01:24:02;;;;;;;0.30;0.30;;;11.60;99.90;;;;;;5039145;28;20064;-77
2022/05/16 01:26:32;;;;;;;0.30;0.30;;;11.60;99.90;;;;;;5049453;28;20427;-75
2022/05/16 01:28:58;;;;;;;0.95;0.95;;;11.60;99.90;;;;;;5041671;28;20582;-77
2022/05/16 01:31:24;;;;;;;0.28;0.28;;;11.70;99.90;;;;;;5016365;28;20053;-76
2022/05/16 01:33:50;;;;;;;;;;;11.70;99.90;;;;;;5025145;28;20088;-77
2022/05/16 01:36:16;;;;;;;0.38;0.38;;;11.70;99.90;;;;;;5039805;28;20323;-76
2022/05/16 01:38:42;;;;;;;0.43;0.43;;;11.70;99.90;;;;;;5048326;28;20045;-77
2022/05/16 01:41:13;;;;;;;0.35;0.35;;;11.70;99.90;;;;;;5056914;28;20043;-76
2022/05/16 01:43:42;;;;;;;0.52;0.52;;;11.70;99.90;;;;;;5052689;28;20040;-77
2022/05/16 01:46:10;;;;;;;0.30;0.30;;;11.70;99.90;;;;;;5051420;28;20033;-75
2022/05/16 01:48:37;;;;;;;0.25;0.25;;;11.70;99.90;;;;;;5040624;28;20055;-78
2022/05/16 01:51:07;;;;;;;0.40;0.40;;;11.70;99.90;;;;;;5010645;28;20056;-76
2022/05/16 01:53:34;;;;;;;0.38;0.38;;;11.70;99.90;;;;;;5013401;28;20065;-77
2022/05/16 01:56:00;;;;;;;0.50;0.50;;;11.70;99.90;;;;;;5014309;28;20037;-78
2022/05/16 01:58:26;;;;;;;0.32;0.32;;;11.70;99.90;;;;;;5023270;28;20104;-77
2022/05/16 02:00:52;;;;;;;0.40;0.40;;;11.70;99.90;;;;;;5030837;28;20037;-77
2022/05/16 02:03:18;;;;;;;;;;;11.70;99.90;;;;;;5044455;28;20107;-78
2022/05/16 02:05:44;;;;;;;0.38;0.38;;;11.70;99.90;;;;;;5033851;28;20327;-76
2022/05/16 02:08:12;;;;;;;0.30;0.30;;;11.70;99.90;;;;;;5045856;28;20192;-77
2022/05/16 02:10:42;;;;;;;0.30;0.30;;;11.60;99.90;;;;;;5035552;28;20042;-78
2022/05/16 02:13:09;;;;;;;0.47;0.40;;;11.60;99.90;;;;;;5031047;28;20221;-77
2022/05/16 02:15:36;;;;;;;0.40;0.40;;;11.60;99.90;;;;;;5060460;28;20044;-77
2022/05/16 02:18:05;;;;;;;0.50;0.50;;;11.70;99.90;;;;;;5029814;28;20064;-77
2022/05/16 02:20:31;;;;;;;0.35;0.35;;;11.60;99.90;;;;;;5008632;28;20033;-78
2022/05/16 02:25:46;;;;;;;0.40;0.40;;;11.60;99.90;;;;;;5017401;28;20045;-77
2022/05/16 02:28:14;;;;;;;0.40;0.40;;;11.60;99.90;;;;;;5046274;28;20060;-79
2022/05/16 02:30:41;;;;;;;0.30;0.30;;;11.50;99.90;;;;;;5056004;28;20060;-78
2022/05/16 02:33:08;;;;;;;0.50;0.50;;;11.60;99.90;;;;;;5026164;28;20110;-77
2022/05/16 02:35:35;;;;;;;0.50;0.50;;;11.50;99.90;;;;;;5029461;28;20128;-76
2022/05/16 02:38:01;;;;;;;0.30;0.30;;;11.50;99.90;;;;;;5035528;28;20056;-75
2022/05/16 02:40:29;;;;;;;0.40;0.40;;;11.50;99.90;;;;;;5035801;28;20049;-77
2022/05/16 02:42:55;;;;;;;0.32;0.32;;;11.50;99.90;;;;;;5016567;28;20045;-78
2022/05/16 02:45:24;;;;;;;0.30;0.30;;;11.50;99.90;;;;;;5032030;28;20049;-78
2022/05/16 02:47:49;;;;;;;0.47;0.47;;;11.50;99.90;;;;;;5030241;28;20053;-77
2022/05/16 02:50:16;;;;;;;0.40;0.40;;;11.50;99.90;;;;;;5049222;28;20041;-76
2022/05/16 02:52:42;;;;;;;0.30;0.30;;;11.50;99.90;;;;;;5025097;28;20128;-75
2022/05/16 02:55:09;;;;;;;0.30;0.30;;;11.50;99.90;;;;;;5038346;28;20167;-77
2022/05/16 02:57:41;;;;;;;0.28;0.28;;;11.40;99.90;;;;;;5042850;28;20127;-76
2022/05/16 03:00:09;;;;;;;;;;;11.40;99.90;;;;;;5037771;28;20100;-78
2022/05/16 03:02:36;;;;;;;0.30;0.30;;;11.40;99.90;;;;;;5038508;28;19917;-77
2022/05/16 03:05:03;;;;;;;0.30;0.30;;;11.40;99.90;;;;;;5051508;28;20055;-76
2022/05/16 03:07:28;;;;;;;0.30;0.30;;;11.40;99.90;;;;;;5009915;28;20041;-77
2022/05/16 03:09:55;;;;;;;0.40;0.40;;;11.40;99.90;;;;;;5018161;28;20052;-78
2022/05/16 03:12:21;;;;;;;1.45;0.40;;;11.50;99.90;;;;;;5032979;28;20048;-78
2022/05/16 03:14:47;;;;;;;0.45;0.45;;;11.40;99.90;;;;;;5004513;28;20037;-78
2022/05/16 03:17:12;;;;;;;0.40;0.40;;;11.30;99.90;;;;;;5035009;28;20369;-77
2022/05/16 03:19:38;;;;;;;0.30;0.30;;;11.30;99.90;;;;;;5020836;28;20045;-77
2022/05/16 03:22:05;;;;;;;0.40;0.40;;;11.30;99.90;;;;;;5037164;28;20037;-77
2022/05/16 03:24:32;;;;;;;0.25;0.25;;;11.30;99.90;;;;;;5009317;28;20040;-78
2022/05/16 03:27:00;;;;;;;0.30;0.30;;;11.20;99.90;;;;;;5041907;28;20092;-78
2022/05/16 03:29:25;;;;;;;0.30;0.30;;;11.20;99.90;;;;;;5023276;28;20045;-77
2022/05/16 03:31:53;;;;;;;0.30;0.30;;;11.30;99.90;;;;;;5041933;28;20541;-76
2022/05/16 03:34:19;;;;;;;0.30;0.30;;;11.20;99.90;;;;;;5023974;28;20040;-76
2022/05/16 03:36:45;;;;;;;0.30;0.30;;;11.10;99.90;;;;;;5005370;28;20041;-76
2022/05/16 03:41:56;;;;;;;0.45;0.45;;;11.10;99.90;;;;;;5054845;28;20091;-77
2022/05/16 03:44:23;;;;;;;0.50;0.50;;;11.10;99.90;;;;;;5057657;28;20076;-77
2022/05/16 03:46:49;;;;;;;0.40;0.40;;;11.10;99.90;;;;;;5029973;28;20041;-77
2022/05/16 03:49:15;;;;;;;0.47;0.47;;;11.10;99.90;;;;;;5054106;28;20075;-76
2022/05/16 03:51:41;;;;;;;;;;;11.10;99.90;;;;;;5047488;28;20060;-74
2022/05/16 03:54:07;;;;;;;0.50;0.50;;;11.10;99.90;;;;;;5038857;28;19920;-78
2022/05/16 03:56:33;;;;;;;0.43;0.43;;;11.10;99.90;;;;;;5000500;28;20549;-78
2022/05/16 03:58:59;;;;;;;0.50;0.50;;;11.10;99.90;;;;;;5033436;28;20055;-77
2022/05/16 04:01:27;;;;;;;0.30;0.30;;;11.10;99.90;;;;;;5038678;28;20073;-77
2022/05/16 04:03:54;;;;;;;0.30;0.30;;;11.10;99.90;;;;;;5020223;28;20051;-77
2022/05/16 04:06:20;;;;;;;0.30;0.30;;;11.10;99.90;;;;;;5013568;28;20037;-77
2022/05/16 04:08:46;;;;;;;0.30;0.30;;;11.10;99.90;;;;;;5033265;28;20055;-77
2022/05/16 04:11:17;;;;;;;0.35;0.35;;;11.10;99.90;;;;;;5016165;28;20439;-76
2022/05/16 04:13:44;;;;;;;0.40;0.40;;;11.10;99.90;;;;;;5030435;28;20608;-78
2022/05/16 04:16:10;;;;;;;0.40;0.40;;;11.20;99.90;;;;;;5012157;28;20033;-77
2022/05/16 04:18:36;;;;;;;0.30;0.30;;;11.20;99.90;;;;;;5043525;28;20049;-77
2022/05/16 04:21:02;;;;;;;0.30;0.30;;;11.20;99.90;;;;;;5019030;28;20341;-77
2022/05/16 04:23:28;;;;;;;0.40;0.40;;;11.30;99.90;;;;;;5045461;28;20044;-78
2022/05/16 04:25:54;;;;;;;0.43;0.43;;;11.40;99.90;;;;;;5012476;28;20041;-77
2022/05/16 04:28:19;;;;;;;0.22;0.22;;;11.40;99.90;;;;;;5005121;28;20053;-76
2022/05/16 04:30:45;;;;;;;0.30;0.30;;;11.50;99.90;;;;;;5014141;28;20038;-75
2022/05/16 04:33:11;;;;;;;0.32;0.32;;;11.50;99.90;;;;;;5052462;28;20049;-75
2022/05/16 04:35:37;;;;;;;0.45;0.45;;;11.60;99.90;;;;;;5037107;28;20046;-77
2022/05/16 04:38:06;;;;;;;0.30;0.30;;;11.60;99.90;;;;;;5051157;28;20052;-79
2022/05/16 04:40:33;;;;;;;0.40;0.40;;;11.70;99.90;;;;;;5021605;28;20402;-79
2022/05/16 04:43:00;;;;;;;0.40;0.40;;;11.70;99.90;;;;;;5053603;28;20056;-78
2022/05/16 04:45:29;;;;;;;0.40;0.40;;;11.80;99.90;;;;;;5023057;28;20087;-77
2022/05/16 04:47:57;;;;;;;0.30;0.30;;;11.90;99.90;;;;;;5034285;28;20042;-77
2022/05/16 04:50:31;;;;;;;0.30;0.30;;;11.90;99.90;;;;;;5026487;28;20053;-78
2022/05/16 04:52:58;;;;;;;0.40;0.40;;;12.00;99.90;;;;;;5046255;28;20038;-77
2022/05/16 04:55:26;;;;;;;0.40;0.40;;;12.10;99.90;;;;;;5028067;28;20112;-78
2022/05/16 04:57:52;;;;;;;0.22;0.22;;;12.10;99.90;;;;;;5014660;28;20137;-76
2022/05/16 05:00:20;;;;;;;0.47;0.47;;;12.20;99.90;;;;;;5030948;28;20128;-77
2022/05/16 05:02:46;;;;;;;0.30;0.30;;;12.30;99.90;;;;;;5017095;28;20461;-77
2022/05/16 05:05:14;;;;;;;0.47;0.47;;;12.40;99.90;;;;;;5047786;28;20049;-77
2022/05/16 05:07:40;;;;;;;0.32;0.32;;;12.40;99.90;;;;;;5012250;28;20437;-76
2022/05/16 05:15:39;;;;;;;0.32;0.32;;;12.70;99.90;;;;;;5036000;28;20045;-79
2022/05/16 05:18:05;;;;;;;0.30;0.30;;;12.70;99.90;;;;;;5016494;28;20052;-78
2022/05/16 05:20:35;;;;;;;0.47;0.47;;;12.80;99.90;;;;;;5030916;28;20051;-78
2022/05/16 05:23:03;;;;;;;0.45;0.45;;;12.80;99.90;;;;;;5037269;28;20041;-77
2022/05/16 05:25:29;;;;;;;0.30;0.30;;;12.90;99.90;;;;;;5026261;28;20049;-78
2022/05/16 05:27:54;;;;;;;0.32;0.32;;;13.00;99.90;;;;;;5037371;28;20047;-77
2022/05/16 05:30:24;;;;;;;0.30;0.30;;;13.00;99.90;;;;;;5008966;28;20041;-79
2022/05/16 05:32:50;;;;;;;0.30;0.30;;;13.00;99.90;;;;;;5028811;28;20034;-78
2022/05/16 05:35:17;;;;;;;0.30;0.30;;;13.00;99.90;;;;;;5026033;28;20330;-78
2022/05/16 05:37:43;;;;;;;0.30;0.30;;;13.10;99.90;;;;;;5025569;28;20569;-78
2022/05/16 05:40:10;;;;;;;0.25;0.25;;;13.10;99.90;;;;;;5001552;28;20045;-77
2022/05/16 05:42:40;;;;;;;0.30;0.30;;;13.10;99.90;;;;;;5024485;28;20293;-78
2022/05/16 05:45:07;;;;;;;0.30;0.30;;;13.20;99.90;;;;;;5020127;28;20041;-76
2022/05/16 05:47:33;;;;;;;0.30;0.30;;;13.20;99.90;;;;;;5058039;28;20041;-76
2022/05/16 05:50:01;;;;;;;0.30;0.30;;;13.30;99.90;;;;;;5030629;28;20042;-77
2022/05/16 05:52:30;;;;;;;0.30;0.30;;;13.40;99.90;;;;;;5019709;28;20045;-77
2022/05/16 05:54:56;;;;;;;0.30;0.30;;;13.60;99.90;;;;;;5021442;28;20037;-77
2022/05/16 05:57:24;;;;;;;0.30;0.30;;;13.70;99.90;;;;;;5020337;28;20073;-78
2022/05/16 05:59:52;;;;;;;0.30;0.30;;;13.80;99.90;;;;;;5066130;28;20057;-77
2022/05/16 06:02:18;;;;;;;0.30;0.30;;;13.90;99.90;;;;;;5047736;28;20458;-78
2022/05/16 06:04:45;;;;;;;;;;;14.00;99.90;;;;;;5029370;28;20041;-77
2022/05/16 06:07:12;;;;;;;0.40;0.40;;;14.00;99.90;;;;;;5041231;28;19974;-77
2022/05/16 06:09:37;;;;;;;0.30;0.30;;;14.00;99.90;;;;;;5025369;28;20037;-78
2022/05/16 06:12:05;;;;;;;1.02;0.95;;;14.00;99.90;;;;;;5043654;28;20044;-77
2022/05/16 06:14:32;;;;;;;0.30;0.30;;;14.00;99.90;;;;;;5024007;28;20041;-78
2022/05/16 06:16:58;;;;;;;0.30;0.30;;;14.00;99.90;;;;;;5018839;28;20037;-77
2022/05/16 06:19:26;;;;;;;0.60;0.60;;;14.00;99.90;;;;;;5026367;28;20046;-77
2022/05/16 06:21:52;;;;;;;0.30;0.30;;;14.00;99.90;;;;;;5047081;28;20033;-77
2022/05/16 06:27:03;;;;;;;0.20;0.20;;;14.10;99.90;;;;;;5044701;28;19924;-76
2022/05/16 06:29:29;;;;;;;;;;;14.10;99.90;;;;;;5037002;28;20355;-76
2022/05/16 06:31:55;;;;;;;0.25;0.25;;;14.10;99.90;;;;;;5031877;28;19928;-77
2022/05/16 06:34:21;;;;;;;0.35;0.35;;;14.20;99.90;;;;;;5036781;28;20041;-73
2022/05/16 06:36:47;;;;;;;0.20;0.20;;;14.20;99.90;;;;;;5041580;28;20144;-75
2022/05/16 06:39:13;;;;;;;0.30;0.30;;;14.40;99.90;;;;;;5028806;28;20037;-73
2022/05/16 06:41:39;;;;;;;0.30;0.30;;;14.50;99.90;;;;;;5013798;28;20037;-75
2022/05/16 06:44:04;;;;;;;;;;;14.80;99.90;;;;;;5028977;28;20037;-74
2022/05/16 06:46:33;;;;;;;0.30;0.30;;;15.00;99.90;;;;;;5047347;28;19921;-76
2022/05/16 06:49:00;;;;;;;0.30;0.30;;;15.10;99.90;;;;;;5021222;28;20083;-79
2022/05/16 06:51:26;;;;;;;0.20;0.20;;;15.20;99.90;;;;;;5015698;28;20124;-76
2022/05/16 06:53:52;;;;;;;0.28;0.28;;;15.40;99.90;;;;;;5035863;28;20144;-76
2022/05/16 06:56:17;;;;;;;;;;;15.60;99.90;;;;;;5051486;28;20069;-75
2022/05/16 06:58:45;;;;;;;0.30;0.30;;;15.80;99.90;;;;;;5034681;28;19986;-76
2022/05/16 07:01:10;;;;;;;0.30;0.30;;;16.00;99.90;;;;;;5021573;28;20479;-78
2022/05/16 07:03:40;;;;;;;0.98;0.57;;;16.10;99.90;;;;;;5011570;28;20047;-71
2022/05/16 07:06:10;;;;;;;0.30;0.30;;;16.30;99.90;;;;;;5041595;28;20192;-74
2022/05/16 07:08:36;;;;;;;0.30;0.30;;;16.50;99.90;;;;;;5024306;28;20285;-77
2022/05/16 07:11:02;;;;;;;;;;;16.50;99.90;;;;;;5016643;28;20068;-75
2022/05/16 07:13:29;;;;;;;0.47;0.47;;;16.60;99.90;;;;;;5033724;28;19928;-72
2022/05/16 07:15:56;;;;;;;0.50;0.30;;;16.70;99.90;;;;;;5036668;28;20049;-74
2022/05/16 07:18:23;;;;;;;0.55;0.55;;;16.80;99.90;;;;;;5009608;28;20141;-79
2022/05/16 07:20:49;;;;;;;0.80;0.45;;;16.90;99.90;;;;;;5037698;28;20073;-76
2022/05/16 07:23:16;;;;;;;0.30;0.30;;;16.90;99.90;;;;;;5044824;28;20044;-77
2022/05/16 07:28:26;;;;;;;0.40;0.40;;;17.00;99.90;;;;;;5011783;28;20213;-76
2022/05/16 07:30:52;;;;;;;;;;;17.00;99.90;;;;;;5032201;28;20360;-73
2022/05/16 07:33:19;;;;;;;0.20;0.20;;;17.00;99.90;;;;;;5033875;28;19955;-72
2022/05/16 07:35:50;;;;;;;0.85;0.85;;;17.10;99.90;;;;;;5030008;28;20319;-72
2022/05/16 07:38:16;;;;;;;0.28;0.28;;;17.40;99.90;;;;;;5042937;28;20049;-76
2022/05/16 07:40:42;;;;;;;0.30;0.30;;;17.60;99.90;;;;;;5031010;28;20051;-74
2022/05/16 07:43:08;;;;;;;;;;;17.90;99.90;;;;;;5032815;28;20057;-72
2022/05/16 07:45:34;;;;;;;0.25;0.25;;;18.20;99.90;;;;;;5031373;28;19921;-74
2022/05/16 07:48:03;;;;;;;;;;;18.40;99.90;;;;;;5033931;28;20048;-74
2022/05/16 07:50:29;;;;;;;0.30;0.30;;;18.50;99.90;;;;;;5051670;28;19921;-76
2022/05/16 07:52:57;;;;;;;0.25;0.25;;;18.60;99.90;;;;;;5038668;28;20117;-77
2022/05/16 07:55:24;;;;;;;0.30;0.30;;;18.70;99.90;;;;;;5018370;28;20490;-75
2022/05/16 07:57:50;;;;;;;0.32;0.32;;;18.80;99.90;;;;;;5047914;28;20478;-73
2022/05/16 08:00:17;;;;;;;;;;;18.90;99.90;;;;;;5030317;28;20063;-76
2022/05/16 08:02:45;;;;;;;0.80;0.80;;;19.00;99.90;;;;;;5035078;28;19925;-75
2022/05/16 08:05:12;;;;;;;;;;;19.00;99.90;;;;;;5029463;28;20056;-73
2022/05/16 08:10:29;;;;;;;0.20;0.20;;;19.10;99.90;;;;;;5035227;28;19986;-73
2022/05/16 08:10:30;;;;;;;0.30;0.30;;;19.10;99.90;;;;;;5032772;28;20122;-75
2022/05/16 08:13:03;;;;;;;0.40;0.40;;;19.20;99.90;;;;;;5035378;28;20128;-75
2022/05/16 08:15:30;;;;;;;0.38;0.38;;;19.30;99.90;;;;;;5049588;28;20458;-74
2022/05/16 08:17:57;;;;;;;0.43;0.43;;;19.40;99.90;;;;;;5011741;28;20041;-76
2022/05/16 08:20:33;;;;;;;;;;;19.50;99.90;;;;;;5032099;28;20049;-74
2022/05/16 08:22:59;;;;;;;0.38;0.30;;;19.70;99.90;;;;;;5030698;28;19920;-78
2022/05/16 08:25:25;;;;;;;0.40;0.40;;;19.80;99.90;;;;;;5031670;28;20128;-80
2022/05/16 08:27:51;;;;;;;0.30;0.30;;;19.90;99.90;;;;;;5028247;28;20045;-76
2022/05/16 08:30:19;;;;;;;0.22;0.22;;;20.00;99.90;;;;;;5025965;28;20052;-76
2022/05/16 08:32:46;;;;;;;0.20;0.20;;;20.10;99.90;;;;;;5039061;28;20065;-77
2022/05/16 08:35:13;;;;;;;0.20;0.20;;;20.30;99.90;;;;;;5031914;28;20057;-76
2022/05/16 08:40:37;;;;;;;0.35;0.35;;;20.50;99.90;;;;;;5031462;28;20052;-77
2022/05/16 08:43:08;;;;;;;0.22;0.22;;;20.70;99.90;;;;;;5032623;28;20120;-75
2022/05/16 08:45:37;;;;;;;0.20;0.20;;;20.80;99.90;;;;;;5020952;28;20397;-75
2022/05/16 08:48:09;;;;;;;0.32;0.30;;;21.00;99.90;;;;;;5049767;28;20053;-76
2022/05/16 08:50:46;;;;;;;0.20;0.20;;;21.20;99.90;;;;;;5036351;28;20046;-72
2022/05/16 08:53:23;;;;;;;0.20;0.20;;;21.30;99.90;;;;;;5041205;28;20678;-76
2022/05/16 08:56:03;;;;;;;0.17;0.17;;;21.50;99.90;;;;;;5050153;28;20407;-75
2022/05/16 08:58:34;;;;;;;0.30;0.30;;;21.70;99.90;;;;;;5014883;28;20072;-77
2022/05/16 09:01:50;;;;;;;0.30;0.30;;;21.90;98.80;;;;;;5027479;28;20044;-76
2022/05/16 09:04:25;;;;;;;0.20;0.20;;;22.00;99.90;;;;;;4957715;28;20095;-76
2022/05/16 09:07:01;;;;;;;0.20;0.20;;;22.20;95.20;;;;;;4986401;28;20054;-77
2022/05/16 09:10:08;;;;;;;0.65;0.65;;;22.40;97.10;;;;;;4966525;28;20869;-74
2022/05/16 09:12:48;;;;;;;0.53;0.53;;;22.70;98.40;;;;;;5009777;28;20124;-78
2022/05/16 09:15:30;;;;;;;0.30;0.30;;;22.80;94.30;;;;;;5012852;28;20076;-82
2022/05/16 09:18:37;;;;;;;0.17;0.17;;;22.90;94.10;;;;;;5012211;28;20633;-79
2022/05/16 09:21:16;;;;;;;0.30;0.30;;;23.00;94.70;;;;;;5026901;28;20042;-77
2022/05/16 09:24:17;;;;;;;0.10;0.10;;;23.00;95.70;;;;;;5046948;28;20336;-76
2022/05/16 09:26:42;;;;;;;0.20;0.20;;;23.00;92.90;;;;;;5031159;28;20052;-75
2022/05/16 09:29:23;;;;;;;0.20;0.20;;;22.90;91.50;;;;;;5046994;28;20414;-75
2022/05/16 09:31:51;;;;;;;0.25;0.25;;;22.70;94.10;;;;;;5013561;28;20120;-78
2022/05/16 09:34:17;;;;;;;0.35;0.35;;;22.60;93.30;;;;;;5033346;28;20161;-77
2022/05/16 09:36:48;;;;;;;0.20;0.20;;;22.60;95.80;;;;;;5030337;28;20045;-77
2022/05/16 09:39:23;;;;;;;0.20;0.20;;;22.50;94.40;;;;;;5033873;28;20049;-77
2022/05/16 09:42:03;;;;;;;0.35;0.35;;;22.60;93.50;;;;;;5010726;28;20052;-79
2022/05/16 09:44:29;;;;;;;0.20;0.20;;;22.60;95.60;;;;;;5019250;28;20121;-76
2022/05/16 09:47:36;;;;;;;0.30;0.30;;;22.60;93.80;;;;;;5041361;28;20447;-74
2022/05/16 09:50:14;;;;;;;0.30;0.30;;;22.50;93.60;;;;;;5038215;28;20736;-74
2022/05/16 09:52:46;;;;;;;0.20;0.20;;;22.50;95.60;;;;;;5028333;28;20052;-74
2022/05/16 09:55:34;;;;;;;0.20;0.20;;;22.60;95.70;;;;;;5025125;28;20037;-78
2022/05/16 09:58:26;;;;;;;0.10;0.10;;;22.80;91.90;;;;;;5031752;28;20069;-76
2022/05/16 10:00:59;;;;;;;0.25;0.25;;;23.00;93.10;;;;;;5042670;28;20049;-76
2022/05/16 10:03:43;;;;;;;0.20;0.20;;;23.30;93.60;;;;;;5024786;28;20549;-76
2022/05/16 10:06:31;;;;;;;0.43;0.43;;;23.40;92.00;;;;;;5050725;28;20176;-75
2022/05/16 10:09:07;;;;;;;0.17;0.17;;;23.50;91.20;;;;;;5037939;28;20049;-76
2022/05/16 10:11:33;;;;;;;0.10;0.10;;;23.60;92.70;;;;;;5035360;28;20481;-76
2022/05/16 10:13:59;;;;;;;0.20;0.20;;;23.80;86.90;;;;;;5039571;28;20075;-75
2022/05/16 10:16:28;;;;;;;0.20;0.20;;;24.00;84.90;;;;;;5016864;28;20079;-75
2022/05/16 10:19:16;;;;;;;0.30;0.30;;;24.20;89.00;;;;;;5023944;28;20453;-72
2022/05/16 10:21:54;;;;;;;0.20;0.20;;;24.40;78.00;;;;;;5043426;28;20045;-76
2022/05/16 10:24:21;;;;;;;0.30;0.30;;;24.80;83.00;;;;;;5035517;28;20106;-76
2022/05/16 10:26:51;;;;;;;0.75;0.30;;;25.10;83.60;;;;;;5043945;28;20096;-76
2022/05/16 10:29:25;;;;;;;0.20;0.20;;;25.30;87.10;;;;;;5035559;28;20033;-76
2022/05/16 10:35:09;;;;;;;0.20;0.20;;;25.70;84.10;;;;;;5033069;28;20128;-74
2022/05/16 10:37:40;;;;;;;0.80;0.80;;;25.80;80.80;;;;;;5035110;28;20537;-75
2022/05/16 10:40:08;;;;;;;0.28;0.28;;;25.70;69.10;;;;;;5042265;28;20076;-74
2022/05/16 10:42:39;;;;;;;0.75;0.40;;;25.50;70.60;;;;;;5040943;28;20045;-75
2022/05/16 10:45:27;;;;;;;0.22;0.22;;;25.50;70.60;;;;;;5037759;28;20061;-74
2022/05/16 10:48:05;;;;;;;0.20;0.20;;;25.50;71.80;;;;;;5038634;28;20057;-75
2022/05/16 10:50:43;;;;;;;0.30;0.30;;;25.60;71.30;;;;;;5042705;28;20049;-76
2022/05/16 10:53:30;;;;;;;0.10;0.10;;;25.80;70.90;;;;;;5029343;28;20824;-76
2022/05/16 10:56:25;;;;;;;0.35;0.35;;;26.10;73.30;;;;;;5029313;28;20049;-74
2022/05/16 10:58:57;;;;;;;0.20;0.20;;;26.50;67.60;;;;;;5039611;28;20550;-76
2022/05/16 11:01:38;;;;;;;1.85;0.30;;;26.70;68.80;;;;;;5033705;28;20136;-75
2022/05/16 11:04:48;;;;;;;0.20;0.20;;;26.80;65.80;;;;;;5051658;28;20079;-73
2022/05/16 11:07:28;;;;;;;0.15;0.15;;;26.90;66.50;;;;;;5034001;28;20058;-72
2022/05/16 11:10:20;;;;;;;0.40;0.40;;;26.90;68.00;;;;;;5049077;28;20127;-76
2022/05/16 11:13:17;;;;;;;0.10;0.10;;;26.80;65.10;;;;;;5047804;28;20037;-73
2022/05/16 11:15:53;;;;;;;0.20;0.20;;;26.80;64.90;;;;;;5041166;28;20041;-75
2022/05/16 11:18:40;;;;;;;0.40;0.40;;;26.70;62.50;;;;;;5031466;28;20049;-73
2022/05/16 11:21:28;;;;;;;0.28;0.28;;;26.90;63.70;;;;;;5041325;28;20048;-75
2022/05/16 11:24:08;;;;;;;0.13;0.13;;;27.00;68.40;;;;;;5043937;28;20448;-75
2022/05/16 11:26:52;;;;;;;0.20;0.20;;;27.00;63.40;;;;;;5041392;28;20037;-72
2022/05/16 11:29:33;;;;;;;0.00;0.00;;;26.90;63.10;;;;;;5020645;28;20081;-73
2022/05/16 11:32:17;;;;;;;0.32;0.30;;;26.90;64.30;;;;;;5028947;28;20037;-74
2022/05/16 11:34:55;;;;;;;0.10;0.10;;;26.90;62.40;;;;;;5025270;28;20046;-73
2022/05/16 11:37:49;;;;;;;0.20;0.20;;;26.80;63.40;;;;;;5018234;28;20049;-71
2022/05/16 11:40:20;;;;;;;0.10;0.10;;;26.60;65.00;;;;;;5035900;28;20038;-74
2022/05/16 11:42:58;;;;;;;0.95;0.95;;;26.50;69.10;;;;;;5028271;28;20061;-71
2022/05/16 11:46:01;;;;;;;0.73;0.30;;;26.40;64.20;;;;;;5034485;28;20336;-72
2022/05/16 11:48:49;;;;;;;0.55;0.55;;;26.30;69.40;;;;;;5051297;28;20049;-73
2022/05/16 11:51:53;;;;;;;0.20;0.20;;;26.30;66.40;;;;;;5038844;28;20039;-70
2022/05/16 11:54:25;;;;;;;0.40;0.32;;;26.30;61.50;;;;;;5004890;28;20073;-73
2022/05/16 12:02:28;;;;;;;0.25;0.25;;;26.60;65.50;;;;;;5040255;28;20060;-71
2022/05/16 12:05:34;;;;;;;0.10;0.10;;;26.60;62.60;;;;;;5037380;28;20336;-72
2022/05/16 12:08:13;;;;;;;0.13;0.13;;;26.60;64.80;;;;;;5032683;28;20060;-71
2022/05/16 12:10:57;;;;;;;0.30;0.30;;;26.70;68.00;;;;;;5028653;28;20060;-73
2022/05/16 12:13:29;;;;;;;0.10;0.10;;;26.70;66.50;;;;;;5029971;28;20094;-75
2022/05/16 12:16:32;;;;;;;0.30;0.30;;;26.70;64.50;;;;;;5026823;28;20037;-75
2022/05/16 12:19:21;;;;;;;0.47;0.32;;;26.70;66.50;;;;;;5022438;28;20139;-75
2022/05/16 12:21:57;;;;;;;0.75;0.65;;;26.60;65.20;;;;;;5035463;28;20043;-73
2022/05/16 12:24:24;;;;;;;0.40;0.40;;;26.60;65.30;;;;;;5048439;28;20159;-76
2022/05/16 12:27:04;;;;;;;0.20;0.20;;;26.70;66.60;;;;;;5032310;28;20067;-74
2022/05/16 12:29:46;;;;;;;0.47;0.32;;;26.90;65.50;;;;;;5047419;28;20068;-75
2022/05/16 12:32:30;;;;;;;0.88;0.88;;;26.90;66.90;;;;;;5041306;28;20055;-73
2022/05/16 12:35:06;;;;;;;0.20;0.20;;;26.90;68.80;;;;;;5049304;28;20174;-74
2022/05/16 12:37:34;;;;;;;0.20;0.20;;;26.80;67.30;;;;;;5046218;28;20053;-73
2022/05/16 12:40:16;;;;;;;0.52;0.52;;;26.60;67.70;;;;;;5034165;28;20048;-75
2022/05/16 12:43:03;;;;;;;0.47;0.43;;;26.50;68.70;;;;;;5041135;28;20076;-77
2022/05/16 12:46:07;;;;;;;0.10;0.10;;;26.40;67.90;;;;;;5033470;28;20049;-73
2022/05/16 12:49:30;;;;;;;1.85;0.60;;;26.20;66.90;;;;;;5004887;28;20057;-72
2022/05/16 12:52:05;;;;;;;0.22;0.22;;;26.00;67.70;;;;;;5006336;28;20543;-73
2022/05/16 12:54:57;;;;;;;0.40;0.40;;;25.90;68.50;;;;;;4972670;28;20081;-73
2022/05/16 12:57:47;;;;;;;0.15;0.15;;;25.70;68.20;;;;;;5008915;28;20388;-73
2022/05/16 13:00:24;;;;;;;0.73;0.63;;;25.60;70.00;;;;;;5034422;28;20053;-74
2022/05/16 13:02:56;;;;;;;0.50;0.50;;;25.60;70.20;;;;;;5026037;28;20566;-72
2022/05/16 13:05:39;;;;;;;0.45;0.30;;;25.50;74.40;;;;;;5045136;28;20651;-76
2022/05/16 13:08:13;;;;;;;0.35;0.35;;;25.50;72.00;;;;;;5044758;28;20115;-76
2022/05/16 13:10:59;;;;;;;0.50;0.50;;;25.50;71.40;;;;;;5041995;28;20109;-73
2022/05/16 13:13:33;;;;;;;0.60;0.47;;;25.50;71.60;;;;;;5034294;28;20538;-74
2022/05/16 13:16:18;;;;;;;0.17;0.17;;;25.60;72.30;;;;;;5045405;28;20029;-76
2022/05/16 13:18:55;;;;;;;0.20;0.20;;;25.70;72.10;;;;;;5048623;28;20053;-75
2022/05/16 13:21:24;;;;;;;1.20;0.77;;;25.80;71.60;;;;;;5037934;28;20082;-78
2022/05/16 13:23:50;;;;;;;0.20;0.20;;;25.80;72.10;;;;;;5035443;28;20152;-74
2022/05/16 13:31:49;;;;;;;0.28;0.22;;;26.00;71.30;;;;;;5039895;28;20501;-76
2022/05/16 13:34:27;;;;;;;0.30;0.30;;;26.00;72.10;;;;;;5040738;28;20076;-78
2022/05/16 13:36:53;;;;;;;0.57;0.57;;;26.10;71.60;;;;;;5049339;28;20588;-80
2022/05/16 13:39:19;;;;;;;0.65;0.65;;;26.00;70.20;;;;;;5053002;28;20053;-78
2022/05/16 13:41:57;;;;;;;0.20;0.20;;;25.90;71.60;;;;;;5051264;28;20217;-76
2022/05/16 13:44:24;;;;;;;0.47;0.47;;;25.90;73.30;;;;;;5036432;28;20044;-76
2022/05/16 13:46:53;;;;;;;0.20;0.20;;;25.80;73.20;;;;;;5016571;28;20049;-79
2022/05/16 13:49:20;;;;;;;0.30;0.30;;;25.70;72.80;;;;;;5033489;28;20402;-76
2022/05/16 13:51:52;;;;;;;0.60;0.60;;;25.50;73.20;;;;;;5036151;28;20051;-76
2022/05/16 13:54:21;;;;;;;0.73;0.73;;;25.40;74.70;;;;;;5046412;28;20057;-77
2022/05/16 13:56:55;;;;;;;0.40;0.40;;;25.40;74.00;;;;;;5036641;28;20251;-78